Aérodrome :
LOGIN :

S'inscrire | Disclaimer

   EN    FR    IT 

 










Légende :    VFR   VFR Marginal   IFR   IFR Intensif   IFR Très Intensif
Visi : 
Plafond : 
>= 8 km
>= 3000ft
5 à 8 km
1000 à 3000 ft
1500m à 5 km
500 à 1000 ft
800 à 1500m
200 à 500 ft
< 800m
< 200 ft
Symboles :   Orages  Brouillard  Fortes neiges  Fortes précipitations  Vent > 20 kt
SIGMETs :   Divers  Orages  Givrage  Turbulence  Onde Orograph.  Cendres Volcan.






- Altitude de l'aérodrome : 443 ft
- Code IATA : GNA


UMMG - Grodno

DERNIER METAR :
  • 141200Z 15008G11MPS 9999 OVC006 02/01 Q0998 NOSIG RMK QBB190

METARs EXPIRÉS :
  • 141100Z 14008G11MPS 9999 OVC006 02/01 Q0998 NOSIG RMK QBB190
  • 141000Z 15010G13MPS 9999 OVC006 02/01 Q0999 NOSIG RMK QBB190

TAF TAF UMMG
Valide du 14 à 12h jusqu'au 14 à 21h UTC


141106Z 1412/1421 15008G13MPS 8000 OVC007 BKN060
TEMPO 1412/1415 4000 -SHRASN OVC006CB
TEMPO 1415/1421 18006G11MPS 3000 -RA BR OVC004



MET'MAP, la Météo Aéronautique d'un coup d'oeil ! - Copyright ORBIFLY Décembre 2007 - Disclaimer

ORBIFLY MET'MAP TEAM :

Programmation & Développement : Alexandra Zaïnal
Sur une idée originale de : Baudouin d'Aumeries
Assistance à la programmation : Marc-Olivier Méhu
Soutien technique & logistique : Manuel Goepfert

Contact : metmap@orbifly.com




SOURCES & CREDITS :

   NOAA